Time;durP1;ratioP1;P1;durP2;ratioP2;P2;SDS_P1;SDS_P2;PMS_P1;PMS_P2;Temp;Humidity;BMP_temperature;BMP_pressure;BME280_temperature;BME280_humidity;BME280_pressure;Samples;Min_cycle;Max_cycle;Signal;HPM_P1;HPM_P2
2022/12/24 00:03:38;;;;;;;11.00;1.65;;;;;;;;;;5058123;23;20127;-82
2022/12/24 00:06:43;;;;;;;17.98;2.78;;;;;;;;;;5037188;28;20060;-81
2022/12/24 00:09:46;;;;;;;16.10;2.90;;;;;;;;;;5054359;28;20109;-81
2022/12/24 00:12:22;;;;;;;12.07;2.13;;;;;;;;;;5048026;28;20041;-80
2022/12/24 00:15:31;;;;;;;11.52;2.13;;;;;;;;;;5037527;28;20033;-81
2022/12/24 00:18:24;;;;;;;15.38;2.70;;;;;;;;;;5040966;28;20109;-81
2022/12/24 00:23:36;;;;;;;14.65;1.98;;;;;;;;;;5047643;28;20072;-81
2022/12/24 00:26:02;;;;;;;10.18;1.95;;;;;;;;;;5043823;28;20470;-81
2022/12/24 00:28:29;;;;;;;14.65;2.45;;;;;;;;;;5050337;28;20013;-81
2022/12/24 00:30:58;;;;;;;13.45;2.45;;;;;;;;;;5060852;28;20025;-85
2022/12/24 00:36:01;;;;;;;13.60;2.33;;;;;;;;;;5228266;23;20056;-82
2022/12/24 00:38:35;;;;;;;16.30;2.35;;;;;;;;;;5041800;28;20044;-81
2022/12/24 00:44:09;;;;;;;14.48;2.42;;;;;;;;;;5025332;28;20494;-83
2022/12/24 00:46:55;;;;;;;21.02;2.65;;;;;;;;;;5036334;28;20021;-82
2022/12/24 00:49:30;;;;;;;15.85;2.67;;;;;;;;;;5034683;28;20041;-81
2022/12/24 00:52:18;;;;;;;15.25;2.83;;;;;;;;;;5041660;28;20117;-82
2022/12/24 00:54:46;;;;;;;14.52;2.47;;;;;;;;;;5039145;28;20105;-82
2022/12/24 00:57:15;;;;;;;16.20;2.60;;;;;;;;;;5028332;28;20029;-82
2022/12/24 00:59:46;;;;;;;11.07;2.37;;;;;;;;;;5021671;28;20041;-83
2022/12/24 01:02:25;;;;;;;17.75;3.80;;;;;;;;;;5020899;28;20277;-81
2022/12/24 01:05:10;;;;;;;13.30;3.03;;;;;;;;;;5026818;28;20052;-83
2022/12/24 01:07:40;;;;;;;15.52;2.83;;;;;;;;;;5013571;28;20101;-82
2022/12/24 01:10:10;;;;;;;14.02;3.47;;;;;;;;;;5028046;28;20026;-83
2022/12/24 01:12:40;;;;;;;12.80;2.55;;;;;;;;;;5013039;28;20021;-82
2022/12/24 01:15:19;;;;;;;16.88;2.95;;;;;;;;;;5012608;28;20029;-82
2022/12/24 01:17:47;;;;;;;13.55;2.95;;;;;;;;;;5014653;28;20030;-83
2022/12/24 01:20:44;;;;;;;12.13;2.88;;;;;;;;;;5027564;28;20041;-81
2022/12/24 01:23:12;;;;;;;14.95;2.53;;;;;;;;;;5032993;28;20026;-82
2022/12/24 01:25:43;;;;;;;12.68;2.58;;;;;;;;;;5029002;28;20040;-83
2022/12/24 01:28:26;;;;;;;16.98;3.00;;;;;;;;;;5011386;28;20113;-82
2022/12/24 01:30:57;;;;;;;14.70;2.70;;;;;;;;;;5030053;28;20523;-81
2022/12/24 01:33:29;;;;;;;14.98;2.78;;;;;;;;;;5010276;28;20030;-82
2022/12/24 01:35:59;;;;;;;16.58;3.00;;;;;;;;;;5012883;28;20030;-82
2022/12/24 01:38:35;;;;;;;22.15;2.85;;;;;;;;;;5037832;28;20030;-82
2022/12/24 01:46:53;;;;;;;17.23;3.30;;;;;;;;;;5213263;23;20139;-82
2022/12/24 01:49:54;;;;;;;20.00;4.13;;;;;;;;;;5033732;28;20040;-81
2022/12/24 02:01:06;;;;;;;16.88;3.05;;;;;;;;;;5403002;23;20057;-81
2022/12/24 02:03:49;;;;;;;17.25;2.72;;;;;;;;;;5025974;28;20108;-81
2022/12/24 02:06:37;;;;;;;14.15;2.80;;;;;;;;;;5013164;28;20106;-82
2022/12/24 02:09:16;;;;;;;18.08;2.85;;;;;;;;;;5020947;28;20500;-82
2022/12/24 02:11:50;;;;;;;17.63;3.00;;;;;;;;;;5008362;28;20098;-82
2022/12/24 02:14:21;;;;;;;19.63;2.83;;;;;;;;;;5012328;28;20075;-82
2022/12/24 02:17:29;;;;;;;14.50;2.80;;;;;;;;;;5028471;28;20033;-83
2022/12/24 03:03:36;;;;;;;23.35;3.92;;;;;;;;;;4042702;23;19924;-80
2022/12/24 03:06:12;;;;;;;24.27;4.07;;;;;;;;;;5006265;28;20025;-80
2022/12/24 03:09:04;;;;;;;18.00;3.65;;;;;;;;;;5025599;28;20022;-80
2022/12/24 03:11:36;;;;;;;12.82;2.97;;;;;;;;;;5020314;28;20034;-82
2022/12/24 03:14:05;;;;;;;;;;;11.10;99.90;;;;;;5016039;28;20025;-82
2022/12/24 03:16:31;;;;;;;22.52;3.20;;;;;;;;;;5001551;28;19909;-82
2022/12/24 03:18:59;;;;;;;21.65;3.13;;;;;;;;;;5007564;28;20040;-82
2022/12/24 03:21:45;;;;;;;20.92;3.58;;;;;;;;;;4988043;28;20034;-83
2022/12/24 03:24:15;;;;;;;21.50;3.60;;;;;;;;;;5018372;28;20026;-81
2022/12/24 03:26:45;;;;;;;;;;;11.20;99.90;;;;;;5021592;28;20029;-81
2022/12/24 03:29:13;;;;;;;18.23;3.53;;;;;;;;;;5003420;28;19940;-81
2022/12/24 03:31:41;;;;;;;17.45;3.42;;;;;;;;;;5026095;28;20030;-83
2022/12/24 03:34:10;;;;;;;13.45;2.88;;;;;;;;;;5010329;28;20030;-82
2022/12/24 03:36:39;;;;;;;26.15;3.50;;;;;;;;;;5007635;28;20032;-82
2022/12/24 03:39:07;;;;;;;25.73;5.00;;;;;;;;;;5012931;28;20041;-85
2022/12/24 03:41:38;;;;;;;32.00;4.60;;;;;;;;;;5028897;28;20077;-81
2022/12/24 03:44:05;;;;;;;23.05;3.88;;;;;;;;;;5033367;28;20068;-82
2022/12/24 03:46:32;;;;;;;21.38;4.00;;;;;;;;;;5029029;28;20053;-83
2022/12/24 03:48:58;;;;;;;29.83;3.83;;;;;;;;;;5008889;28;20010;-83
2022/12/24 03:51:28;;;;;;;18.98;3.42;;;;;;;;;;5027079;28;20006;-82
2022/12/24 03:53:54;;;;;;;26.73;3.95;;;;;;;;;;5026442;28;20022;-81
2022/12/24 03:56:24;;;;;;;23.70;2.95;;;;;;;;;;5012461;28;20030;-81
2022/12/24 03:58:53;;;;;;;26.63;4.13;;;;;;;;;;5016860;28;20021;-81
2022/12/24 04:01:19;;;;;;;24.70;3.60;;;;;;;;;;5009369;28;20022;-83
2022/12/24 04:03:50;;;;;;;26.67;4.22;;;;;;;;;;5014692;28;20027;-84
2022/12/24 04:06:19;;;;;;;22.33;3.55;;;;;;;;;;5034503;28;20040;-82
2022/12/24 04:11:53;;;;;;;19.02;3.45;;;;;;;;;;4972085;28;20671;-89
2022/12/24 04:17:59;;;;;;;17.92;3.22;;;11.20;99.90;;;;;;4957425;28;20060;-87
2022/12/24 04:20:45;;;;;;;20.70;3.50;;;;;;;;;;4976506;28;20061;-87
2022/12/24 04:23:30;;;;;;;25.27;3.45;;;;;;;;;;4975493;28;20098;-89
2022/12/24 04:29:05;;;;;;;20.52;3.47;;;;;;;;;;4968452;28;20054;-88
2022/12/24 04:31:31;;;;;;;24.55;3.88;;;;;;;;;;4959792;28;20030;-90
2022/12/24 04:33:57;;;;;;;20.67;3.08;;;;;;;;;;4959046;28;20040;-87
2022/12/24 04:36:23;;;;;;;20.10;3.85;;;;;;;;;;4957242;28;20026;-91
2022/12/24 04:38:56;;;;;;;21.65;3.45;;;;;;;;;;4972791;28;20111;-89
2022/12/24 04:41:22;;;;;;;17.83;3.92;;;;;;;;;;4966307;28;20030;-87
2022/12/24 04:43:49;;;;;;;23.77;3.30;;;;;;;;;;4955625;28;20070;-86
2022/12/24 04:46:20;;;;;;;19.60;3.70;;;11.00;99.90;;;;;;4954120;28;20093;-87
2022/12/24 04:48:51;;;;;;;29.48;4.60;;;11.00;99.90;;;;;;4973679;28;20098;-90
2022/12/24 04:51:17;;;;;;;16.80;2.75;;;;;;;;;;4962950;28;20031;-90
2022/12/24 04:54:03;;;;;;;27.65;3.90;;;;;;;;;;4959893;28;20061;-88
2022/12/24 04:56:51;;;;;;;20.55;2.80;;;;;;;;;;4976570;28;20053;-88
2022/12/24 04:59:42;;;;;;;25.40;3.30;;;;;;;;;;4974767;28;20077;-87
2022/12/24 05:02:08;;;;;;;;;;;10.90;99.90;;;;;;4981125;28;20027;-89
2022/12/24 05:04:34;;;;;;;19.35;3.75;;;;;;;;;;4977656;28;19913;-88
2022/12/24 05:07:00;;;;;;;21.08;3.65;;;;;;;;;;4977685;28;20026;-89
2022/12/24 05:09:41;;;;;;;19.70;3.33;;;;;;;;;;4970882;28;20026;-88
2022/12/24 05:12:07;;;;;;;18.33;3.17;;;;;;;;;;4991570;28;20043;-88
2022/12/24 05:14:54;;;;;;;21.90;3.95;;;;;;;;;;4960318;28;20608;-90
2022/12/24 05:17:38;;;;;;;22.35;3.78;;;;;;;;;;4959699;28;20057;-89
2022/12/24 05:20:34;;;;;;;20.25;3.15;;;;;;;;;;4985777;28;20062;-87
2022/12/24 05:28:32;;;;;;;21.42;3.35;;;;;;;;;;5010544;28;20090;-88
2022/12/24 05:30:59;;;;;;;23.08;3.45;;;;;;;;;;4999111;28;20049;-91
2022/12/24 05:33:27;;;;;;;21.08;3.35;;;13.50;99.90;;;;;;4980910;28;20052;-88
2022/12/24 05:35:53;;;;;;;24.13;3.45;;;;;;;;;;4979719;28;20023;-91
2022/12/24 05:38:20;;;;;;;16.75;3.00;;;;;;;;;;4984131;28;20038;-88
2022/12/24 05:40:46;;;;;;;28.92;3.33;;;;;;;;;;4983363;28;20027;-87
2022/12/24 05:43:15;;;;;;;26.40;3.60;;;;;;;;;;4981414;28;20137;-89
2022/12/24 05:45:41;;;;;;;25.05;3.90;;;;;;;;;;4988143;28;20186;-87
2022/12/24 05:48:07;;;;;;;21.58;3.33;;;;;;;;;;4979039;28;20054;-88
2022/12/24 05:50:34;;;;;;;23.38;3.50;;;;;;;;;;4986370;28;20090;-90
2022/12/24 05:56:12;;;;;;;19.10;3.28;;;;;;;;;;4991923;28;20120;-89
2022/12/24 05:58:42;;;;;;;18.38;3.25;;;;;;;;;;5001135;28;20042;-89
2022/12/24 06:01:11;;;;;;;20.65;3.50;;;;;;;;;;4996756;28;20074;-87
2022/12/24 06:03:38;;;;;;;20.85;3.20;;;;;;;;;;5003250;28;20021;-87
2022/12/24 06:06:22;;;;;;;;;;;;;;;;;;;;;
2022/12/24 06:08:49;;;;;;;19.73;3.58;;;;;;;;;;5006293;28;20058;-87
2022/12/24 06:11:16;;;;;;;24.60;4.18;;;;;;;;;;4995443;28;20065;-88
2022/12/24 06:14:08;;;;;;;22.48;4.18;;;;;;;;;;4972563;28;20062;-88
2022/12/24 06:17:13;;;;;;;21.17;3.20;;;;;;;;;;4975711;28;20049;-90
2022/12/24 06:19:39;;;;;;;22.08;3.42;;;;;;;;;;4903806;29;20028;-87
2022/12/24 06:22:12;;;;;;;24.98;3.90;;;;;;;;;;4907364;29;20577;-88
2022/12/24 06:24:38;;;;;;;20.00;3.92;;;;;;;;;;4923612;28;20035;-87
2022/12/24 06:27:04;;;;;;;30.15;4.05;;;;;;;;;;4983049;28;20050;-87
2022/12/24 06:29:30;;;;;;;26.25;4.45;;;;;;;;;;4960767;28;20106;-88
2022/12/24 06:31:56;;;;;;;22.13;4.05;;;;;;;;;;4969327;28;20058;-88
2022/12/24 06:37:17;;;;;;;25.30;3.90;;;;;;;;;;4994044;28;20361;-87
2022/12/24 06:39:44;;;;;;;23.85;3.80;;;;;;;;;;4970242;28;20030;-88
2022/12/24 07:28:48;;;;;;;28.33;4.55;;;;;;;;;;5028436;28;20037;-84
2022/12/24 07:31:14;;;;;;;24.73;3.90;;;;;;;;;;4992366;28;20066;-86
2022/12/24 07:33:40;;;;;;;32.63;4.50;;;;;;;;;;4988826;28;20176;-88
2022/12/24 07:57:36;;;;;;;24.23;4.40;;;;;;;;;;5037059;28;20064;-87
2022/12/24 08:00:09;;;;;;;20.73;4.13;;;;;;;;;;5054554;28;20057;-88
2022/12/24 08:03:21;;;;;;;24.55;4.07;;;10.40;99.90;;;;;;5027385;28;20026;-86
2022/12/24 08:13:08;;;;;;;27.52;3.85;;;10.40;99.90;;;;;;5002142;28;20033;-87
2022/12/24 08:15:37;;;;;;;22.08;4.85;;;;;;;;;;4986351;28;20035;-84
2022/12/24 08:18:03;;;;;;;23.80;4.43;;;;;;;;;;4994325;28;20027;-85
2022/12/24 08:20:29;;;;;;;25.25;4.60;;;;;;;;;;5000432;28;20026;-86
2022/12/24 08:22:55;;;;;;;26.17;3.60;;;;;;;;;;5021881;28;20029;-86
2022/12/24 08:25:21;;;;;;;29.40;4.82;;;;;;;;;;4998678;28;20034;-86
2022/12/24 08:39:37;;;;;;;17.15;3.72;;;10.60;99.90;;;;;;5024080;28;20053;-87
2022/12/24 08:42:19;;;;;;;22.58;4.28;;;;;;;;;;5014881;28;20052;-84
2022/12/24 08:44:46;;;;;;;25.63;3.92;;;10.60;99.90;;;;;;5033567;28;20079;-84
2022/12/24 08:53:58;;;;;;;20.95;5.00;;;10.70;99.90;;;;;;5026630;28;20396;-83
2022/12/24 08:56:23;;;;;;;25.92;4.03;;;10.70;99.90;;;;;;5013605;28;20033;-84
2022/12/24 08:58:49;;;;;;;18.30;3.70;;;10.80;99.90;;;;;;5017398;28;20486;-86
2022/12/24 09:01:16;;;;;;;21.92;3.72;;;;;;;;;;5010901;28;20491;-85
2022/12/24 09:03:42;;;;;;;25.08;4.15;;;;;;;;;;5012112;28;20034;-84
2022/12/24 09:14:01;;;;;;;23.90;4.20;;;;;;;;;;5010091;26;20038;-88
2022/12/24 09:16:48;;;;;;;13.98;3.45;;;;;;;;;;5000041;28;20046;-89
2022/12/24 09:22:37;;;;;;;21.42;3.58;;;;;;;;;;4978452;28;20030;-91
2022/12/24 09:31:48;;;;;;;30.50;4.40;;;;;;;;;;4941373;29;20072;-90
2022/12/24 09:38:23;;;;;;;30.23;4.72;;;;;;;;;;4924758;28;20046;-88
2022/12/24 09:40:50;;;;;;;17.63;3.85;;;;;;;;;;4950220;28;20016;-90
2022/12/24 09:43:16;;;;;;;20.98;3.20;;;;;;;;;;4950618;28;20099;-89
2022/12/24 09:46:11;;;;;;;;;;;;;;;;;;;;;
2022/12/24 09:48:53;;;;;;;;;;;;;;;;;;;;;
2022/12/24 09:52:17;;;;;;;21.50;4.30;;;;;;;;;;4970878;28;20043;-89
2022/12/24 09:54:44;;;;;;;18.30;3.67;;;;;;;;;;4921162;29;20036;-87
2022/12/24 09:57:28;;;;;;;19.67;3.88;;;;;;;;;;5004380;28;20039;-88
2022/12/24 09:59:55;;;;;;;22.30;3.75;;;;;;;;;;4994843;28;20022;-84
2022/12/24 10:02:21;;;;;;;25.85;4.10;;;;;;;;;;5014027;28;20515;-87
2022/12/24 10:04:47;;;;;;;22.52;4.00;;;;;;;;;;4991445;28;20089;-85
2022/12/24 10:07:19;;;;;;;15.77;3.10;;;;;;;;;;4997313;28;20058;-87
2022/12/24 10:09:53;;;;;;;21.27;4.43;;;;;;;;;;5000588;28;20030;-89
2022/12/24 10:12:24;;;;;;;21.65;3.95;;;;;;;;;;5007200;28;20102;-89
2022/12/24 10:14:54;;;;;;;23.92;4.50;;;;;;;;;;5001696;28;20606;-88
2022/12/24 10:17:29;;;;;;;19.52;4.10;;;;;;;;;;5000586;28;20041;-86
2022/12/24 10:20:19;;;;;;;19.42;4.20;;;11.70;99.90;;;;;;5001840;28;20035;-88
2022/12/24 10:22:58;;;;;;;26.42;4.88;;;;;;;;;;4997173;28;20036;-84
2022/12/24 10:25:31;;;;;;;19.98;3.63;;;;;;;;;;4999141;28;20038;-86
2022/12/24 10:28:00;;;;;;;30.20;4.75;;;;;;;;;;5013025;28;20106;-83
2022/12/24 10:30:27;;;;;;;20.20;3.72;;;;;;;;;;5003004;28;20026;-85
2022/12/24 10:32:54;;;;;;;23.90;4.88;;;;;;;;;;5014956;28;20022;-84
2022/12/24 10:35:28;;;;;;;19.50;3.88;;;;;;;;;;4998628;28;20034;-89
2022/12/24 10:37:56;;;;;;;20.42;3.90;;;;;;;;;;4994154;28;20030;-85
2022/12/24 10:40:37;;;;;;;20.95;3.75;;;;;;;;;;4994757;28;20034;-84
2022/12/24 10:43:17;;;;;;;;;;;11.80;99.90;;;;;;5017052;28;20021;-85
2022/12/24 10:45:51;;;;;;;25.77;4.53;;;;;;;;;;5000727;28;19905;-89
2022/12/24 10:51:45;;;;;;;23.40;4.13;;;;;;;;;;5018733;28;20072;-85
2022/12/24 10:54:18;;;;;;;18.90;4.10;;;;;;;;;;4991388;28;20057;-82
2022/12/24 10:57:25;;;;;;;22.08;4.15;;;;;;;;;;5010648;28;20478;-86
2022/12/24 11:00:09;;;;;;;30.25;5.55;;;;;;;;;;4949758;28;20056;-89
2022/12/24 11:02:50;;;;;;;27.73;4.50;;;;;;;;;;4996644;28;20038;-83
2022/12/24 11:05:32;;;;;;;24.27;4.20;;;;;;;;;;4992430;28;20049;-84
2022/12/24 11:14:40;;;;;;;33.72;5.40;;;11.40;99.90;;;;;;5017142;28;21800;-89
2022/12/24 11:17:06;;;;;;;21.90;4.47;;;;;;;;;;4994598;28;20032;-86
2022/12/24 11:19:34;;;;;;;28.20;6.65;;;;;;;;;;4998809;28;20038;-85
2022/12/24 11:22:02;;;;;;;30.67;5.53;;;;;;;;;;5010631;28;20029;-83
2022/12/24 11:24:37;;;;;;;31.23;5.00;;;11.30;99.90;;;;;;4986929;28;20057;-84
2022/12/24 11:27:24;;;;;;;29.08;5.25;;;;;;;;;;4990589;28;21070;-85
2022/12/24 11:29:50;;;;;;;22.88;4.38;;;;;;;;;;4992122;28;20022;-88
2022/12/24 11:32:21;;;;;;;30.10;5.63;;;;;;;;;;4992439;28;20121;-85
2022/12/24 11:34:53;;;;;;;29.90;5.82;;;;;;;;;;4994948;28;20138;-85
2022/12/24 11:37:23;;;;;;;23.80;4.32;;;;;;;;;;4983594;28;20038;-85
2022/12/24 11:39:54;;;;;;;23.45;4.43;;;;;;;;;;4997740;28;20030;-86
2022/12/24 11:42:32;;;;;;;23.77;4.40;;;;;;;;;;4975981;28;20117;-88
2022/12/24 11:45:05;;;;;;;22.00;3.63;;;;;;;;;;4987166;28;20029;-88
2022/12/24 11:47:32;;;;;;;22.13;3.80;;;;;;;;;;5013517;28;20049;-89
2022/12/24 11:50:23;;;;;;;23.50;4.57;;;11.90;99.90;;;;;;5000518;28;20038;-87
2022/12/24 11:52:51;;;;;;;;;;;11.90;99.90;;;;;;5004784;28;20034;-87
2022/12/24 11:55:21;;;;;;;23.95;4.95;;;;;;;;;;4987817;28;19913;-89
2022/12/24 11:58:06;;;;;;;20.80;4.47;;;;;;;;;;4986192;28;20109;-84
2022/12/24 12:00:32;;;;;;;21.40;4.68;;;;;;;;;;4984938;28;20038;-82
2022/12/24 12:03:03;;;;;;;23.13;3.80;;;;;;;;;;4985274;28;20089;-86
2022/12/24 12:05:33;;;;;;;24.20;3.67;;;;;;;;;;4984678;28;20845;-85
2022/12/24 12:08:09;;;;;;;19.15;3.67;;;;;;;;;;5001030;28;20058;-86
2022/12/24 12:10:49;;;;;;;17.45;3.50;;;;;;;;;;4988093;28;20156;-86
2022/12/24 12:13:37;;;;;;;21.02;4.88;;;;;;;;;;4981319;28;20514;-85
2022/12/24 12:16:09;;;;;;;29.02;5.45;;;;;;;;;;5003624;28;20073;-87
2022/12/24 12:18:39;;;;;;;16.67;3.85;;;;;;;;;;4987507;28;20038;-87
2022/12/24 12:21:07;;;;;;;;;;;12.00;99.90;;;;;;4986587;28;20085;-86
2022/12/24 12:23:35;;;;;;;22.25;4.32;;;;;;;;;;5002769;28;19914;-85
2022/12/24 12:26:14;;;;;;;22.15;4.25;;;;;;;;;;4999721;28;20042;-87
2022/12/24 12:28:48;;;;;;;23.75;4.22;;;;;;;;;;4990460;28;20295;-88
2022/12/24 12:31:20;;;;;;;15.02;3.97;;;;;;;;;;4986509;28;20022;-86
2022/12/24 12:33:52;;;;;;;18.88;4.97;;;;;;;;;;4983890;28;20487;-86
2022/12/24 12:36:21;;;;;;;18.80;4.43;;;;;;;;;;4980267;28;20030;-85
2022/12/24 12:38:49;;;;;;;17.17;3.10;;;;;;;;;;5001990;28;20025;-87
2022/12/24 12:41:27;;;;;;;23.25;4.55;;;;;;;;;;4988577;28;20082;-86
2022/12/24 12:43:59;;;;;;;18.63;3.65;;;;;;;;;;4981320;28;20041;-85
2022/12/24 12:46:31;;;;;;;21.98;3.65;;;;;;;;;;4984751;28;20111;-86
2022/12/24 12:49:06;;;;;;;16.50;3.53;;;;;;;;;;4999866;28;20500;-87
2022/12/24 12:51:56;;;;;;;;;;;;;;;;;;;;;
